createdAt,value
2023-03-07T00:00:36.617Z,16.52
2023-03-07T00:08:43.713Z,16.48
2023-03-07T00:16:53.146Z,16.85
2023-03-07T00:24:58.528Z,15.52
2023-03-07T00:33:07.070Z,14.70
2023-03-07T00:41:14.473Z,13.27
2023-03-07T00:49:23.040Z,12.25
2023-03-07T00:57:38.052Z,12.35
2023-03-07T01:05:46.052Z,12.90
2023-03-07T01:13:51.661Z,12.48
2023-03-07T01:21:59.942Z,12.48
2023-03-07T01:30:05.615Z,11.15
2023-03-07T01:38:13.940Z,9.98
2023-03-07T01:46:42.050Z,12.93
2023-03-07T01:54:53.930Z,11.02
2023-03-07T02:03:09.691Z,11.33
2023-03-07T02:11:21.013Z,12.38
2023-03-07T02:19:39.824Z,12.15
2023-03-07T02:27:51.115Z,11.77
2023-03-07T02:35:59.773Z,12.65
2023-03-07T02:44:08.656Z,13.82
2023-03-07T02:52:15.023Z,13.98
2023-03-07T03:00:24.416Z,13.35
2023-03-07T03:08:30.787Z,12.57
2023-03-07T03:16:39.916Z,12.98
2023-03-07T03:24:45.727Z,13.18
2023-03-07T03:32:57.221Z,13.00
2023-03-07T03:41:06.172Z,11.93
2023-03-07T03:49:16.947Z,11.88
2023-03-07T03:57:26.156Z,12.80
2023-03-07T04:05:36.258Z,13.02
2023-03-07T04:13:41.954Z,11.57
2023-03-07T04:21:50.176Z,12.50
2023-03-07T04:29:57.355Z,12.63
2023-03-07T04:38:05.931Z,12.80
2023-03-07T04:46:13.098Z,14.60
2023-03-07T04:54:21.858Z,13.00
2023-03-07T05:02:28.904Z,12.30
2023-03-07T05:10:38.866Z,12.02
2023-03-07T05:18:44.391Z,11.75
2023-03-07T05:26:52.609Z,12.55
2023-03-07T05:34:58.105Z,14.93
2023-03-07T05:43:06.936Z,18.17
2023-03-07T05:51:13.083Z,20.33
2023-03-07T05:59:22.038Z,20.65
2023-03-07T06:07:29.966Z,23.10
2023-03-07T06:15:38.073Z,21.45
2023-03-07T06:23:45.255Z,20.52
2023-03-07T06:31:57.489Z,19.90
2023-03-07T06:40:06.410Z,18.73
2023-03-07T06:48:18.048Z,18.83
2023-03-07T06:56:23.518Z,24.60
2023-03-07T07:04:32.278Z,22.85
2023-03-07T07:12:38.118Z,18.77
2023-03-07T07:20:46.464Z,19.00
2023-03-07T07:28:52.022Z,18.20
2023-03-07T07:37:00.183Z,17.30
2023-03-07T07:45:07.469Z,18.15
2023-03-07T07:53:17.131Z,17.33
2023-03-07T08:01:25.268Z,18.23
2023-03-07T08:09:34.532Z,13.90
2023-03-07T08:17:40.076Z,8.63
2023-03-07T08:25:51.638Z,9.73
2023-03-07T08:33:57.276Z,9.88
2023-03-07T08:42:05.326Z,10.70
2023-03-07T08:50:12.733Z,10.52
2023-03-07T08:58:20.825Z,10.23
2023-03-07T09:06:26.873Z,10.43
2023-03-07T09:14:34.811Z,8.65
2023-03-07T09:22:40.174Z,6.53
2023-03-07T09:30:57.660Z,6.18
2023-03-07T09:39:03.139Z,5.28
2023-03-07T09:47:33.782Z,5.22
2023-03-07T09:55:39.883Z,4.50
2023-03-07T10:03:56.212Z,4.53
2023-03-07T10:12:31.569Z,4.57
2023-03-07T10:20:48.603Z,4.60
2023-03-07T10:28:54.755Z,5.10
2023-03-07T10:37:09.191Z,4.40
2023-03-07T10:45:31.379Z,5.20
2023-03-07T10:53:42.254Z,6.90
2023-03-07T11:01:57.987Z,6.85
2023-03-07T11:10:35.748Z,7.57
2023-03-07T11:18:44.419Z,7.35
2023-03-07T11:26:57.278Z,7.00
2023-03-07T11:35:09.385Z,6.40
2023-03-07T11:43:24.810Z,6.43
2023-03-07T11:51:42.129Z,6.55
2023-03-07T12:00:22.990Z,7.28
2023-03-07T12:08:41.060Z,6.43
2023-03-07T12:16:56.200Z,6.88
2023-03-07T12:25:20.790Z,7.05
2023-03-07T12:33:33.550Z,6.72
2023-03-07T12:41:57.299Z,6.72
2023-03-07T12:50:12.273Z,6.78
2023-03-07T12:58:28.089Z,6.82
2023-03-07T13:06:35.502Z,6.55
2023-03-07T13:14:45.816Z,6.60
2023-03-07T13:23:14.715Z,6.40
2023-03-07T13:31:46.760Z,7.25
2023-03-07T13:40:07.234Z,5.90
2023-03-07T13:48:36.827Z,5.82
2023-03-07T13:56:46.583Z,5.60
2023-03-07T14:04:55.976Z,5.47
2023-03-07T14:13:30.237Z,6.53
2023-03-07T14:21:47.616Z,6.70
2023-03-07T14:29:58.005Z,7.10
2023-03-07T14:38:03.616Z,5.65
2023-03-07T14:46:25.366Z,7.55
2023-03-07T14:54:35.884Z,5.57
2023-03-07T15:02:49.388Z,6.18
2023-03-07T15:10:59.169Z,18.13
2023-03-07T15:19:12.433Z,12.52
2023-03-07T15:27:27.234Z,15.02
2023-03-07T15:35:35.325Z,8.23
2023-03-07T15:43:40.712Z,8.02
2023-03-07T15:51:48.888Z,6.30
2023-03-07T16:00:00.231Z,5.32
2023-03-07T16:08:16.054Z,6.70
2023-03-07T16:16:26.415Z,6.82
2023-03-07T16:24:34.466Z,8.25
2023-03-07T16:32:46.470Z,7.05
2023-03-07T16:40:54.657Z,6.97
2023-03-07T16:49:00.761Z,8.15
2023-03-07T16:57:09.997Z,7.82
2023-03-07T17:05:21.469Z,9.00
2023-03-07T17:13:30.642Z,7.45
2023-03-07T17:21:37.548Z,7.30
2023-03-07T17:29:50.170Z,9.27
2023-03-07T17:38:00.257Z,9.10
2023-03-07T17:46:11.338Z,13.48
2023-03-07T17:54:17.036Z,8.32
2023-03-07T18:02:26.069Z,9.18
2023-03-07T18:10:31.505Z,21.42
2023-03-07T18:18:58.299Z,16.95
2023-03-07T18:27:08.748Z,15.70
2023-03-07T18:35:18.378Z,18.83
2023-03-07T18:43:23.888Z,28.75
2023-03-07T18:51:32.409Z,20.75
2023-03-07T18:59:37.773Z,18.92
2023-03-07T19:07:45.925Z,18.00
2023-03-07T19:15:51.485Z,20.30
2023-03-07T19:24:01.665Z,21.58
2023-03-07T19:32:07.417Z,21.52
2023-03-07T19:40:16.715Z,22.02
2023-03-07T19:48:22.217Z,20.88
2023-03-07T19:56:34.862Z,21.88
2023-03-07T20:04:40.544Z,18.83
2023-03-07T20:12:48.941Z,21.35
2023-03-07T20:20:54.340Z,19.83
2023-03-07T20:29:03.344Z,20.42
2023-03-07T20:37:08.827Z,19.58
2023-03-07T20:45:17.007Z,19.75
2023-03-07T20:53:22.428Z,24.55
2023-03-07T21:01:32.604Z,24.73
2023-03-07T21:09:38.318Z,22.20
2023-03-07T21:17:46.440Z,21.00
2023-03-07T21:25:51.768Z,20.02
2023-03-07T21:34:01.212Z,20.42
2023-03-07T21:42:07.156Z,20.35
2023-03-07T21:50:15.551Z,20.23
2023-03-07T21:58:20.897Z,21.40
2023-03-07T22:06:30.067Z,19.80
2023-03-07T22:14:35.406Z,18.58
2023-03-07T22:22:43.294Z,20.05
2023-03-07T22:30:49.457Z,18.70
2023-03-07T22:38:59.274Z,20.88
2023-03-07T22:47:04.845Z,20.20
2023-03-07T22:55:13.337Z,19.15
2023-03-07T23:03:18.912Z,18.85
2023-03-07T23:11:28.649Z,19.70
2023-03-07T23:19:34.607Z,17.58
2023-03-07T23:27:42.779Z,17.13
2023-03-07T23:35:48.252Z,17.20
2023-03-07T23:44:00.391Z,16.60
2023-03-07T23:52:05.837Z,18.48
